Qu Xian, China
Current Conditions -  °F | °C
As of 4:00 PM on Friday 24 Oct 2014 (Local Time) from ZSHC Reporting Station
Clear Clear  
Wind Chill: 73°   Ceiling: Unl
Heat Index: 73°   Visibility: 6mi
Dew Point: 52°   Wind: 9mph
Humidity: 47%   Direction: 80°E
Pressure: 30.03"   Gusts: NA
Location:  28.97°N, 118.87°E
Report Text: ZSHC 240800Z 08004MPS CAVOK 23/11 Q1017 NOSIG
Loading
Personal Weather Stations






























Interactive Weather Map
Tropical Storm Tracking
New forecast layout! Learn more

10-Day Weather Forecast

Advertisements
Track Severe Weather on mobile